Time;durP1;ratioP1;P1;durP2;ratioP2;P2;SDS_P1;SDS_P2;PMS_P1;PMS_P2;Temp;Humidity;BMP_temperature;BMP_pressure;BME280_temperature;BME280_humidity;BME280_pressure;Samples;Min_cycle;Max_cycle;Signal;HPM_P1;HPM_P2
2021/06/08 00:01:01;;;;;;;5.12;4.35;;;;;;;21.46;57.00;99353.19;1792157;78;21074;-67
2021/06/08 00:03:27;;;;;;;10.35;4.33;;;;;;;21.44;57.09;99350.75;1768077;80;21002;-67
2021/06/08 00:05:55;;;;;;;6.45;4.10;;;;;;;21.42;57.21;99348.77;1783400;80;21041;-67
2021/06/08 00:08:21;;;;;;;5.90;4.28;;;;;;;21.39;57.31;99348.75;1780147;79;21052;-67
2021/06/08 00:10:48;;;;;;;6.12;4.67;;;;;;;21.38;57.38;99342.23;1779388;79;21140;-67
2021/06/08 00:13:14;;;;;;;5.47;4.37;;;;;;;21.36;57.49;99341.67;1782820;79;21134;-68
2021/06/08 00:15:41;;;;;;;7.80;4.50;;;;;;;21.33;57.58;99340.83;1773189;78;21557;-68
2021/06/08 00:18:07;;;;;;;7.80;4.28;;;;;;;21.30;57.67;99338.08;1811791;77;21056;-67
2021/06/08 00:20:33;;;;;;;5.08;4.17;;;;;;;21.28;57.75;99342.91;1813510;77;20989;-69
2021/06/08 00:23:00;;;;;;;6.03;4.53;;;;;;;21.25;57.88;99340.72;1808919;78;21013;-67
2021/06/08 00:25:28;;;;;;;5.22;3.60;;;;;;;21.24;57.98;99345.83;1813091;78;21208;-66
2021/06/08 00:27:56;;;;;;;5.78;4.30;;;;;;;21.22;58.04;99343.91;1788244;80;21076;-67
2021/06/08 00:30:25;;;;;;;6.15;4.60;;;;;;;21.20;58.14;99332.53;1788764;79;20999;-66
2021/06/08 00:32:51;;;;;;;5.03;4.28;;;;;;;21.16;58.21;99328.70;1811657;78;20993;-67
2021/06/08 00:35:18;;;;;;;5.70;5.17;;;;;;;21.14;58.30;99333.53;1795434;78;21065;-66
2021/06/08 00:37:44;;;;;;;4.90;4.45;;;;;;;21.11;58.41;99336.20;1796829;79;21130;-67
2021/06/08 00:40:12;;;;;;;6.05;4.70;;;;;;;21.10;58.49;99335.09;1797571;79;21036;-67
2021/06/08 00:42:39;;;;;;;4.37;3.98;;;;;;;21.08;58.55;99335.88;1784825;79;21132;-67
2021/06/08 00:45:07;;;;;;;4.42;4.03;;;;;;;21.06;58.67;99339.36;1779735;79;21005;-66
2021/06/08 00:47:33;;;;;;;4.95;4.55;;;;;;;21.05;58.76;99333.66;1784545;79;21001;-66
2021/06/08 00:50:00;;;;;;;4.67;4.20;;;;;;;21.03;58.82;99340.64;1782380;79;21111;-67
2021/06/08 00:52:26;;;;;;;6.67;5.17;;;;;;;21.00;58.88;99340.62;1779895;79;21053;-68
2021/06/08 00:54:53;;;;;;;4.95;4.45;;;;;;;20.99;58.98;99341.66;1785760;80;21092;-66
2021/06/08 00:57:19;;;;;;;4.80;4.37;;;;;;;20.95;59.06;99336.48;1792626;79;21056;-66
2021/06/08 00:59:46;;;;;;;5.53;4.62;;;;;;;20.93;59.15;99338.61;1783193;80;22073;-67
2021/06/08 01:02:15;;;;;;;4.80;4.37;;;;;;;20.91;59.19;99333.98;1782140;79;21103;-67
2021/06/08 01:04:42;;;;;;;5.67;5.08;;;;;;;20.90;59.26;99334.22;1778524;79;21026;-66
2021/06/08 01:07:08;;;;;;;6.08;4.50;;;;;;;20.88;59.34;99343.94;1810899;77;21034;-66
2021/06/08 01:09:35;;;;;;;7.28;5.03;;;;;;;20.85;59.42;99340.38;1786423;79;21029;-66
2021/06/08 01:12:02;;;;;;;5.10;4.28;;;;;;;20.84;59.50;99348.71;1795125;78;21123;-66
2021/06/08 01:14:29;;;;;;;6.78;4.95;;;;;;;20.81;59.54;99340.58;1786051;78;21130;-67
2021/06/08 01:16:55;;;;;;;7.28;4.95;;;;;;;20.80;59.63;99349.73;1792183;79;21010;-67
2021/06/08 01:19:21;;;;;;;7.87;6.78;;;;;;;20.79;59.71;99347.56;1791176;79;21072;-65
2021/06/08 01:21:48;;;;;;;8.75;7.92;;;;;;;20.77;59.74;99352.39;1786963;79;21114;-65
2021/06/08 01:24:14;;;;;;;7.85;6.58;;;;;;;20.77;59.74;99351.58;1796378;79;21057;-66
2021/06/08 01:26:40;;;;;;;9.23;6.90;;;;;;;20.76;59.81;99352.63;1788197;79;21129;-68
2021/06/08 01:29:07;;;;;;;7.20;6.50;;;;;;;20.76;59.83;99359.38;1784665;79;21049;-67
2021/06/08 01:31:35;;;;;;;6.60;5.90;;;;;;;20.74;59.87;99362.86;1785987;79;21072;-66
2021/06/08 01:34:02;;;;;;;6.95;5.83;;;;;;;20.72;59.94;99361.75;1799119;78;21065;-66
2021/06/08 01:36:35;;;;;;;7.17;6.50;;;;;;;20.70;59.98;99366.57;1799118;79;21068;-66
2021/06/08 01:39:01;;;;;;;;;;;;;;;20.70;60.01;99367.11;1761024;79;22662;-67
2021/06/08 01:41:27;;;;;;;6.35;5.75;;;;;;;20.66;60.06;99370.82;1791650;78;20464;-66
2021/06/08 01:43:54;;;;;;;6.62;5.95;;;;;;;20.58;60.31;99367.14;1788178;78;21096;-68
2021/06/08 01:46:21;;;;;;;6.37;5.78;;;;;;;20.55;60.38;99371.67;1812885;78;21565;-67
2021/06/08 01:48:48;;;;;;;6.37;5.78;;;;;;;20.54;60.39;99377.60;1804559;77;21061;-66
2021/06/08 01:51:38;;;;;;;6.47;5.87;;;;;;;20.53;60.43;99374.63;1805588;77;21229;-67
2021/06/08 01:54:25;;;;;;;6.50;5.90;;;;;;;20.51;60.50;99376.72;1784783;78;21575;-66
2021/06/08 01:57:21;;;;;;;6.58;5.80;;;;;;;20.48;60.55;99376.42;1812979;78;21135;-66
2021/06/08 02:00:14;;;;;;;7.00;6.28;;;;;;;20.45;60.69;99382.28;1785269;79;21025;-66
2021/06/08 02:03:21;;;;;;;6.15;5.50;;;;;;;20.42;60.79;99378.20;1808222;77;21029;-66
2021/06/08 02:06:11;;;;;;;5.72;5.22;;;;;;;20.38;60.89;99382.45;1814462;78;21836;-67
2021/06/08 02:09:13;;;;;;;6.85;5.72;;;;;;;20.32;61.06;99378.83;1810328;78;21045;-68
2021/06/08 02:11:51;;;;;;;7.25;5.53;;;;;;;20.30;61.20;99377.41;1805575;78;21005;-67
2021/06/08 02:14:27;;;;;;;6.72;6.03;;;;;;;20.26;61.33;99375.72;1816598;77;21005;-66
2021/06/08 02:17:01;;;;;;;6.53;5.87;;;;;;;20.24;61.39;99375.14;1811396;77;21490;-67
2021/06/08 02:19:28;;;;;;;6.92;5.75;;;;;;;20.23;61.45;99375.68;1769344;78;21105;-66
2021/06/08 02:22:05;;;;;;;6.17;5.58;;;;;;;20.21;61.51;99372.95;1740556;80;21530;-66
2021/06/08 02:24:29;;;;;;;6.70;5.90;;;;;;;20.20;61.57;99373.48;1788225;79;21028;-68
2021/06/08 02:27:06;;;;;;;6.78;5.58;;;;;;;20.19;61.62;99371.83;1780743;79;21017;-67
2021/06/08 02:29:32;;;;;;;6.83;6.25;;;;;;;20.18;61.70;99373.41;1811833;78;21569;-67
2021/06/08 02:31:58;;;;;;;7.05;6.25;;;;;;;20.16;61.78;99380.39;1775927;78;21109;-67
2021/06/08 02:34:25;;;;;;;7.15;6.28;;;;;;;20.15;61.84;99379.30;1800498;77;21119;-66
2021/06/08 02:36:51;;;;;;;6.40;5.50;;;;;;;20.15;61.94;99381.47;1783268;78;21033;-66
2021/06/08 02:39:18;;;;;;;7.08;6.45;;;;;;;20.14;61.95;99373.07;1779864;78;21084;-66
2021/06/08 02:41:44;;;;;;;9.85;8.95;;;;;;;20.16;62.01;99372.84;1811660;78;21532;-65
2021/06/08 02:44:10;;;;;;;9.55;8.65;;;;;;;20.17;62.01;99384.73;1782141;80;21114;-65
2021/06/08 02:46:37;;;;;;;10.63;7.62;;;;;;;20.17;62.03;99383.39;1787040;80;21048;-64
2021/06/08 02:49:05;;;;;;;8.20;6.78;;;;;;;20.17;62.02;99383.39;1780963;80;21069;-66
2021/06/08 02:51:32;;;;;;;7.37;5.50;;;;;;;20.17;62.07;99380.69;1810253;78;22142;-68
2021/06/08 02:53:58;;;;;;;7.40;6.65;;;;;;;20.18;62.12;99386.36;1818579;78;21013;-65
2021/06/08 02:56:25;;;;;;;7.53;6.10;;;;;;;20.16;62.14;99387.67;1776032;80;21101;-65
2021/06/08 02:58:51;;;;;;;6.90;6.25;;;;;;;20.16;62.16;99390.36;1781866;79;21069;-64
2021/06/08 03:01:19;;;;;;;9.38;6.40;;;;;;;20.16;62.24;99397.11;1784784;79;21065;-65
2021/06/08 03:03:52;;;;;;;6.72;6.03;;;;;;;20.15;62.28;99400.34;1749867;79;21065;-65
2021/06/08 03:06:22;;;;;;;6.78;6.10;;;;;;;20.15;62.35;99399.53;1782629;79;21076;-66
2021/06/08 03:09:00;;;;;;;9.00;7.05;;;;;;;20.13;62.39;99395.72;1751021;80;21141;-66
2021/06/08 03:11:31;;;;;;;8.18;6.42;;;;;;;20.13;62.46;99398.41;1778483;79;21073;-65
2021/06/08 03:13:57;;;;;;;18.17;14.75;;;;;;;20.13;62.52;99393.02;1775030;79;21011;-67
2021/06/08 03:16:27;;;;;;;13.60;10.38;;;;;;;20.13;62.58;99394.38;1756035;79;20998;-66
2021/06/08 03:18:54;;;;;;;9.98;8.93;;;;;;;20.13;62.63;99393.02;1781385;79;21040;-66
2021/06/08 03:21:30;;;;;;;9.05;7.37;;;;;;;20.13;62.66;99393.02;1781359;79;21112;-65
2021/06/08 03:23:56;;;;;;;8.43;7.28;;;;;;;20.14;62.71;99395.18;1775601;79;21037;-65
2021/06/08 03:26:23;;;;;;;7.72;6.92;;;;;;;20.13;62.78;99398.41;1782328;79;21038;-66
2021/06/08 03:28:51;;;;;;;8.43;6.65;;;;;;;20.14;62.83;99400.03;1780304;79;21466;-66
2021/06/08 03:31:17;;;;;;;6.50;5.83;;;;;;;20.15;62.86;99403.58;1787402;79;21087;-67
2021/06/08 03:33:44;;;;;;;6.33;5.83;;;;;;;20.15;62.95;99400.88;1779277;79;21136;-66
2021/06/08 03:36:10;;;;;;;7.75;6.97;;;;;;;20.16;62.96;99404.66;1807868;78;21118;-66
2021/06/08 03:38:37;;;;;;;6.75;6.15;;;;;;;20.18;63.04;99408.47;1807730;78;21053;-66
2021/06/08 03:41:04;;;;;;;7.58;6.22;;;;;;;20.19;63.06;99410.94;1807081;78;20994;-65
2021/06/08 03:43:30;;;;;;;8.83;6.62;;;;;;;20.22;63.09;99409.62;1783055;78;21049;-65
2021/06/08 03:45:57;;;;;;;7.58;6.53;;;;;;;20.25;63.08;99405.11;1816666;78;21516;-66
2021/06/08 03:48:23;;;;;;;7.78;7.03;;;;;;;20.30;63.03;99407.08;1798370;78;21497;-66
2021/06/08 03:50:50;;;;;;;7.47;6.78;;;;;;;20.35;62.97;99411.23;1787424;78;21097;-68
2021/06/08 03:53:18;;;;;;;9.13;7.47;;;;;;;20.39;62.90;99408.34;1782427;80;21104;-68
2021/06/08 03:55:47;;;;;;;9.85;8.25;;;;;;;20.41;62.86;99411.08;1806647;77;21280;-66
2021/06/08 03:58:14;;;;;;;9.23;7.05;;;;;;;20.43;62.82;99403.56;1814686;78;22049;-66
2021/06/08 04:00:41;;;;;;;10.55;7.37;;;;;;;20.50;62.80;99414.77;1809663;78;21033;-68
2021/06/08 04:03:09;;;;;;;8.35;6.95;;;;;;;20.53;62.78;99413.76;1780419;78;21025;-67
2021/06/08 04:05:36;;;;;;;7.65;6.85;;;;;;;20.56;62.76;99416.49;1807428;78;21107;-68
2021/06/08 04:08:05;;;;;;;9.38;7.03;;;;;;;20.58;62.80;99413.83;1762384;79;21100;-66
2021/06/08 04:10:32;;;;;;;11.70;6.58;;;;;;;20.60;62.76;99409.58;1781129;78;21110;-68
2021/06/08 04:13:03;;;;;;;7.20;6.60;;;;;;;20.64;62.72;99417.48;1808724;78;21537;-67
2021/06/08 04:15:30;;;;;;;7.17;6.58;;;;;;;20.68;62.73;99413.77;1789731;78;21085;-68
2021/06/08 04:17:56;;;;;;;7.47;6.70;;;;;;;20.72;62.69;99414.91;1778849;80;21520;-69
2021/06/08 04:20:25;;;;;;;7.85;7.05;;;;;;;20.77;62.61;99415.02;1787737;79;21529;-68
2021/06/08 04:22:58;;;;;;;7.70;6.60;;;;;;;20.84;62.53;99419.70;1782997;79;22015;-66
2021/06/08 04:27:45;;;;;;;6.83;6.20;;;;;;;21.00;62.31;99423.52;1859436;75;23428;-66
2021/06/08 04:30:14;;;;;;;7.80;5.85;;;;;;;20.97;62.25;99424.80;1780813;80;21065;-67
2021/06/08 04:32:40;;;;;;;9.43;7.00;;;;;;;21.05;62.18;99419.53;1765801;78;21108;-66
2021/06/08 04:35:08;;;;;;;9.60;7.12;;;;;;;21.12;62.08;99420.73;1784980;78;21015;-66
2021/06/08 04:37:36;;;;;;;7.65;6.78;;;;;;;21.23;61.86;99423.05;1777008;80;21083;-67
2021/06/08 04:40:03;;;;;;;8.08;6.53;;;;;;;21.33;61.67;99418.64;1774793;78;21062;-66
2021/06/08 04:42:30;;;;;;;7.12;6.35;;;;;;;21.43;61.43;99412.57;1771669;78;21087;-66
2021/06/08 04:44:56;;;;;;;7.83;6.70;;;;;;;21.51;61.23;99413.53;1777510;78;21104;-66
2021/06/08 04:47:23;;;;;;;7.28;6.42;;;;;;;21.61;61.04;99418.27;1777277;78;21036;-69
2021/06/08 04:49:50;;;;;;;6.80;6.10;;;;;;;21.70;60.91;99420.83;1776077;79;21554;-69
2021/06/08 04:52:16;;;;;;;6.42;5.83;;;;;;;21.79;60.71;99419.34;1777453;80;21654;-67
2021/06/08 04:54:42;;;;;;;7.58;5.87;;;;;;;21.89;60.54;99415.14;1771483;79;21018;-67
2021/06/08 04:57:15;;;;;;;8.35;7.50;;;;;;;21.96;60.36;99407.64;1785294;80;21135;-67
2021/06/08 05:00:08;;;;;;;7.87;6.50;;;;;;;22.04;60.17;99407.73;1767641;78;21030;-65
2021/06/08 05:02:44;;;;;;;6.80;6.12;;;;;;;22.09;60.04;99411.87;1767556;79;25658;-66
2021/06/08 05:05:27;;;;;;;16.65;6.60;;;;;;;22.14;59.91;99413.30;1772672;78;21053;-67
2021/06/08 05:08:18;;;;;;;9.33;6.67;;;;;;;22.19;59.79;99415.53;1768678;78;21502;-66
2021/06/08 05:10:59;;;;;;;8.70;5.87;;;;;;;22.24;59.70;99419.36;1769922;78;21133;-67
2021/06/08 05:13:26;;;;;;;7.10;6.40;;;;;;;22.29;59.60;99420.78;1750862;80;20993;-66
2021/06/08 05:15:53;;;;;;;6.33;5.72;;;;;;;22.34;59.39;99420.84;1712070;81;21038;-67
2021/06/08 05:18:19;;;;;;;6.87;6.17;;;;;;;22.40;59.26;99418.48;1753308;80;21099;-66
2021/06/08 05:20:45;;;;;;;6.05;5.45;;;;;;;22.46;59.04;99413.94;1774928;80;21083;-67
2021/06/08 05:23:13;;;;;;;8.30;5.62;;;;;;;22.50;58.99;99421.83;1776082;78;21051;-65
2021/06/08 05:25:43;;;;;;;6.35;5.30;;;;;;;22.54;58.79;99420.25;1781264;78;21531;-65
2021/06/08 05:28:10;;;;;;;6.83;6.12;;;;;;;22.58;58.71;99423.56;1772382;79;21002;-66
2021/06/08 05:30:38;;;;;;;8.58;5.20;;;;;;;22.62;58.60;99417.62;1741187;80;21081;-67
2021/06/08 05:33:04;;;;;;;6.53;5.42;;;;;;;22.65;58.41;99415.77;1778739;78;21044;-68
2021/06/08 05:35:31;;;;;;;6.60;5.17;;;;;;;22.69;58.31;99420.95;1772430;78;21810;-66
2021/06/08 05:38:07;;;;;;;7.37;6.12;;;;;;;22.73;58.48;99420.17;1766373;79;21120;-67
2021/06/08 05:40:41;;;;;;;9.30;6.85;;;;;;;22.79;58.75;99422.39;1767956;78;21010;-65
2021/06/08 05:43:04;;;;;;;8.50;6.25;;;;;;;22.88;58.77;99425.47;1770841;80;21047;-66
2021/06/08 05:45:31;;;;;;;6.40;5.80;;;;;;;22.95;58.56;99420.66;1773986;78;21016;-66
2021/06/08 05:47:58;;;;;;;5.67;5.17;;;;;;;23.01;57.98;99427.75;1783532;78;21114;-66
2021/06/08 05:50:24;;;;;;;5.62;5.12;;;;;;;23.08;57.52;99422.14;1786471;78;21013;-66
2021/06/08 05:52:53;;;;;;;6.58;5.20;;;;;;;23.13;57.25;99426.25;1783213;78;21527;-66
2021/06/08 05:55:24;;;;;;;6.28;5.35;;;;;;;23.19;57.16;99423.86;1780162;78;21032;-66
2021/06/08 05:57:52;;;;;;;5.90;5.40;;;;;;;23.24;57.88;99420.39;1767435;78;21227;-66
2021/06/08 06:00:20;;;;;;;5.08;4.58;;;;;;;23.30;58.01;99420.70;1771523;78;21874;-68
2021/06/08 06:02:47;;;;;;;5.65;5.15;;;;;;;23.35;57.76;99414.78;1744939;80;21057;-66
2021/06/08 06:05:13;;;;;;;7.75;5.90;;;;;;;23.43;57.69;99422.97;1769577;78;21056;-67
2021/06/08 06:07:40;;;;;;;5.80;5.30;;;;;;;23.50;57.44;99424.89;1783351;79;20993;-66
2021/06/08 06:10:08;;;;;;;5.62;4.62;;;;;;;23.54;57.10;99419.22;1757102;80;21132;-65
2021/06/08 06:12:37;;;;;;;5.20;4.70;;;;;;;23.60;56.80;99420.63;1776045;78;21789;-66
2021/06/08 06:15:07;;;;;;;7.40;4.28;;;;;;;23.65;56.63;99419.31;1761438;78;21010;-66
2021/06/08 06:17:35;;;;;;;6.03;4.45;;;;;;;23.70;56.66;99412.53;1778513;78;21036;-66
2021/06/08 06:20:06;;;;;;;4.70;4.15;;;;;;;23.75;56.63;99412.03;1765568;78;21057;-66
2021/06/08 06:22:34;;;;;;;8.33;4.75;;;;;;;23.81;56.54;99409.38;1764100;78;21572;-66
2021/06/08 06:25:02;;;;;;;5.12;4.62;;;;;;;23.86;56.52;99402.64;1775116;80;21099;-66
2021/06/08 06:27:30;;;;;;;5.67;4.92;;;;;;;23.91;56.45;99402.12;1768031;79;21069;-66
2021/06/08 06:29:57;;;;;;;5.95;4.37;;;;;;;23.97;56.26;99399.42;1755506;80;21044;-67
2021/06/08 06:32:23;;;;;;;4.80;4.40;;;;;;;24.00;56.24;99398.34;1763234;78;21018;-67
2021/06/08 06:34:50;;;;;;;5.62;4.45;;;;;;;24.05;55.96;99401.09;1772793;78;20990;-65
2021/06/08 06:37:24;;;;;;;6.20;4.05;;;;;;;24.10;55.91;99398.93;1783337;79;21099;-65
2021/06/08 06:39:50;;;;;;;9.85;4.03;;;;;;;24.17;55.73;99402.22;1742764;80;21097;-64
2021/06/08 06:42:17;;;;;;;4.72;4.33;;;;;;;24.21;55.50;99399.80;1765161;78;21093;-66
2021/06/08 06:44:43;;;;;;;4.70;4.15;;;;;;;24.26;55.19;99399.27;1775738;79;20982;-66
2021/06/08 06:47:09;;;;;;;4.97;4.17;;;;;;;24.31;55.14;99400.63;1775610;78;20994;-67
2021/06/08 06:49:37;;;;;;;4.87;4.47;;;;;;;24.36;54.83;99398.48;1771073;80;21521;-69
2021/06/08 06:52:04;;;;;;;4.85;4.37;;;;;;;24.41;54.57;99401.19;1723601;79;21010;-64
2021/06/08 06:54:31;;;;;;;4.72;4.08;;;;;;;24.46;54.38;99403.93;1773026;78;21057;-64
2021/06/08 06:57:00;;;;;;;4.42;4.03;;;;;;;24.50;54.44;99400.95;1777094;78;21592;-63
2021/06/08 06:59:26;;;;;;;6.05;4.30;;;;;;;24.55;54.47;99398.00;1761450;78;21117;-63
2021/06/08 07:01:54;;;;;;;4.37;3.95;;;;;;;24.59;54.32;99397.73;1771826;78;21516;-66
2021/06/08 07:04:24;;;;;;;8.18;4.28;;;;;;;24.64;53.71;99404.54;1757850;78;21046;-64
2021/06/08 07:06:54;;;;;;;4.37;3.72;;;;;;;24.68;53.58;99393.41;1753532;78;21073;-63
2021/06/08 07:09:24;;;;;;;5.67;3.85;;;;;;;24.73;53.20;99396.95;1776354;80;21024;-65
2021/06/08 07:11:54;;;;;;;4.42;3.90;;;;;;;24.79;53.22;99403.20;1762135;79;21088;-66
2021/06/08 07:14:20;;;;;;;6.40;4.33;;;;;;;24.84;53.03;99391.52;1784504;78;21692;-64
2021/06/08 07:16:48;;;;;;;6.53;4.25;;;;;;;24.87;52.78;99404.02;1772654;79;21038;-64
2021/06/08 07:19:15;;;;;;;5.25;3.85;;;;;;;24.92;52.70;99395.88;1785738;78;21052;-61
2021/06/08 07:21:46;;;;;;;6.33;3.50;;;;;;;24.97;52.48;99390.98;1786040;78;21048;-63
2021/06/08 07:24:12;;;;;;;4.37;3.98;;;;;;;25.02;52.48;99391.54;1739021;80;21065;-64
2021/06/08 07:26:38;;;;;;;4.95;4.08;;;;;;;25.07;52.22;99392.36;1779791;78;21739;-63
2021/06/08 07:29:09;;;;;;;4.85;3.30;;;;;;;25.11;52.16;99382.56;1779002;78;21016;-63
2021/06/08 07:31:53;;;;;;;5.28;4.17;;;;;;;25.17;51.80;99390.17;1780226;80;21335;-69
2021/06/08 07:34:29;;;;;;;;;;;;;;;25.21;51.55;99392.61;1784929;78;21028;-65
2021/06/08 07:36:55;;;;;;;4.28;3.80;;;;;;;25.26;51.41;99394.53;1776167;79;20215;-65
2021/06/08 07:39:28;;;;;;;5.15;3.83;;;;;;;25.23;51.43;99391.82;1764936;79;21879;-64
2021/06/08 07:42:24;;;;;;;13.18;8.45;;;;;;;25.28;51.20;99387.75;1780677;78;28213;-66
2021/06/08 07:45:04;;;;;;;15.63;6.17;;;;;;;25.35;51.18;99395.61;1795450;78;21013;-66
2021/06/08 07:47:31;;;;;;;18.35;5.42;;;;;;;25.40;51.12;99396.14;1781996;79;21085;-64
2021/06/08 07:49:59;;;;;;;7.05;4.97;;;;;;;25.44;51.30;99393.97;1776429;78;21069;-64
2021/06/08 07:52:25;;;;;;;6.05;4.85;;;;;;;25.50;51.24;99397.50;1780523;78;21093;-64
2021/06/08 07:54:51;;;;;;;5.00;3.50;;;;;;;25.56;51.04;99386.88;1779190;78;21674;-64
2021/06/08 07:57:19;;;;;;;9.48;7.58;;;;;;;25.60;51.03;99390.66;1784250;79;21438;-61
2021/06/08 07:59:45;;;;;;;10.43;8.48;;;;;;;25.65;50.84;99389.83;1786534;78;21036;-62
2021/06/08 08:02:12;;;;;;;9.43;7.20;;;;;;;25.69;50.87;99392.26;1785268;80;21115;-62
2021/06/08 08:04:41;;;;;;;6.67;5.97;;;;;;;25.73;50.64;99388.44;1773058;80;21784;-64
2021/06/08 08:07:08;;;;;;;6.22;5.53;;;;;;;25.76;50.51;99395.52;1774798;80;20997;-63
2021/06/08 08:09:34;;;;;;;7.72;5.12;;;;;;;25.80;50.38;99388.97;1764727;80;21031;-62
2021/06/08 08:12:01;;;;;;;7.83;5.62;;;;;;;25.83;49.93;99385.16;1712114;80;21081;-61
2021/06/08 08:14:29;;;;;;;6.05;4.75;;;;;;;25.88;49.62;99393.83;1760918;80;21040;-62
2021/06/08 08:16:56;;;;;;;6.28;4.30;;;;;;;25.91;49.46;99394.69;1751833;79;21135;-62
2021/06/08 08:19:23;;;;;;;6.08;4.08;;;;;;;25.95;49.40;99393.03;1783293;78;21519;-62
2021/06/08 08:21:50;;;;;;;5.03;4.50;;;;;;;26.00;49.31;99383.49;1786036;78;21005;-61
2021/06/08 08:24:17;;;;;;;6.12;4.60;;;;;;;26.03;49.08;99385.64;1771552;79;21021;-62
2021/06/08 08:26:43;;;;;;;5.20;4.35;;;;;;;26.06;48.46;99384.28;1784579;78;21120;-61
2021/06/08 08:29:11;;;;;;;4.58;4.15;;;;;;;26.08;48.81;99388.91;1774960;78;21886;-61
2021/06/08 08:31:37;;;;;;;5.50;4.20;;;;;;;26.11;48.64;99390.24;1777806;79;21092;-62
2021/06/08 08:34:04;;;;;;;4.75;3.80;;;;;;;26.14;48.34;99396.50;1772773;78;21058;-62
2021/06/08 08:36:38;;;;;;;7.67;4.28;;;;;;;26.17;47.77;99392.65;1777426;79;21857;-62
2021/06/08 08:39:19;;;;;;;5.22;4.22;;;;;;;26.20;47.75;99396.19;1754057;79;21053;-64
2021/06/08 08:41:45;;;;;;;4.45;3.70;;;;;;;26.23;47.83;99389.36;1775078;78;21783;-65
2021/06/08 08:44:30;;;;;;;5.40;3.77;;;;;;;26.26;47.56;99384.72;1775776;78;21046;-63
2021/06/08 08:46:56;;;;;;;14.15;4.72;;;;;;;26.29;47.99;99387.70;1785365;78;21380;-65
2021/06/08 08:49:22;;;;;;;9.65;4.05;;;;;;;26.27;47.89;99378.20;1783836;80;21020;-64
2021/06/08 08:51:49;;;;;;;8.38;3.90;;;;;;;26.38;46.83;99387.91;1791245;78;21085;-65
2021/06/08 08:54:19;;;;;;;4.25;3.70;;;;;;;26.39;46.52;99384.11;1793998;79;21125;-65
2021/06/08 08:56:46;;;;;;;4.00;3.58;;;;;;;26.41;46.81;99381.91;1776128;78;20998;-67
2021/06/08 08:59:15;;;;;;;3.92;3.52;;;;;;;26.42;46.82;99376.72;1791720;78;21136;-69
2021/06/08 09:01:46;;;;;;;5.65;3.62;;;;;;;26.46;46.46;99375.61;1734373;80;21052;-68
2021/06/08 09:04:13;;;;;;;4.00;3.70;;;;;;;26.49;46.78;99371.78;1769588;80;21068;-67
2021/06/08 09:06:40;;;;;;;3.35;3.08;;;;;;;26.55;46.25;99374.48;1765092;78;21803;-69
2021/06/08 09:09:09;;;;;;;4.10;3.60;;;;;;;26.58;46.02;99367.09;1776529;78;21573;-69
2021/06/08 09:11:40;;;;;;;5.47;3.27;;;;;;;26.61;45.71;99374.17;1778643;78;22624;-68
2021/06/08 09:14:04;;;;;;;5.20;3.10;;;;;;;26.67;45.33;99378.48;1750961;80;21013;-68
2021/06/08 09:16:32;;;;;;;4.22;3.50;;;;;;;26.73;45.32;99372.45;1755189;78;21069;-69
2021/06/08 09:19:04;;;;;;;3.15;2.95;;;;;;;26.78;45.20;99368.89;1776279;78;21138;-68
2021/06/08 09:21:33;;;;;;;3.75;3.45;;;;;;;26.84;45.68;99369.11;1763362;78;21603;-69
2021/06/08 09:24:25;;;;;;;4.03;3.55;;;;;;;26.88;46.11;99351.09;1774452;78;21049;-70
2021/06/08 09:27:04;;;;;;;3.90;3.60;;;;;;;26.94;46.07;99353.22;1781117;78;21915;-67
2021/06/08 09:29:38;;;;;;;3.85;3.40;;;;;;;26.95;46.34;99359.76;1771244;79;21574;-67
2021/06/08 09:32:26;;;;;;;5.22;3.65;;;;;;;26.96;46.64;99352.39;1765938;80;21912;-66
2021/06/08 09:34:59;;;;;;;4.35;3.95;;;;;;;26.96;46.57;99355.92;1772240;79;21076;-67
2021/06/08 09:37:36;;;;;;;4.33;3.33;;;;;;;26.95;46.29;99361.13;1771520;79;21069;-68
2021/06/08 09:40:23;;;;;;;4.45;3.40;;;;;;;26.94;45.29;99354.03;1766755;80;20985;-62
2021/06/08 09:43:07;;;;;;;6.20;3.85;;;;;;;26.93;45.85;99352.98;1765501;79;21081;-61
2021/06/08 09:45:53;;;;;;;3.83;3.45;;;;;;;26.95;45.99;99354.86;1775579;79;21522;-63
2021/06/08 09:48:19;;;;;;;5.35;3.42;;;;;;;26.95;45.77;99356.23;1765672;80;21028;-61
2021/06/08 09:50:51;;;;;;;3.60;3.30;;;;;;;26.97;45.94;99345.30;1786536;78;21075;-60
2021/06/08 09:53:29;;;;;;;3.60;3.30;;;;;;;27.00;46.39;99338.45;1767913;79;22415;-61
2021/06/08 09:56:03;;;;;;;5.92;3.70;;;;;;;27.03;46.60;99340.61;1786122;78;21283;-64
2021/06/08 09:58:30;;;;;;;4.60;3.80;;;;;;;27.04;46.80;99343.05;1809406;78;21055;-63
2021/06/08 10:01:12;;;;;;;4.33;3.65;;;;;;;27.06;47.04;99340.86;1781919;79;21483;-62
2021/06/08 10:03:46;;;;;;;6.67;3.83;;;;;;;27.07;46.76;99341.10;1762858;78;21044;-64
2021/06/08 10:06:19;;;;;;;4.42;3.45;;;;;;;27.07;46.18;99341.66;1780218;80;21040;-63
2021/06/08 10:09:04;;;;;;;4.33;3.72;;;;;;;27.07;46.42;99338.37;1778317;78;21116;-62
2021/06/08 10:11:33;;;;;;;4.25;3.47;;;;;;;27.08;46.60;99326.91;1767449;78;21479;-61
2021/06/08 10:14:19;;;;;;;4.67;3.10;;;;;;;27.10;46.97;99320.66;1767871;79;21018;-62
2021/06/08 10:17:00;;;;;;;3.65;3.35;;;;;;;27.14;47.24;99318.14;1767806;78;21100;-65
2021/06/08 10:19:27;;;;;;;3.60;3.30;;;;;;;27.15;47.45;99321.14;1789143;80;21500;-64
2021/06/08 10:21:54;;;;;;;6.45;3.75;;;;;;;27.17;47.59;99321.66;1775935;78;21159;-61
2021/06/08 10:24:24;;;;;;;3.92;3.52;;;;;;;27.20;46.68;99316.45;1778545;78;21101;-63
2021/06/08 10:26:54;;;;;;;3.72;3.42;;;;;;;27.24;46.64;99317.52;1786005;80;21053;-62
2021/06/08 10:29:23;;;;;;;3.70;3.40;;;;;;;27.28;46.94;99316.40;1745836;80;21061;-63
2021/06/08 10:31:50;;;;;;;3.92;3.52;;;;;;;27.31;47.11;99317.16;1768400;80;21076;-64
2021/06/08 10:34:16;;;;;;;4.10;3.75;;;;;;;27.35;46.67;99318.77;1762026;79;21081;-65
2021/06/08 10:36:43;;;;;;;3.90;3.60;;;;;;;27.36;46.90;99323.14;1763187;78;21762;-64
2021/06/08 10:39:13;;;;;;;4.12;3.25;;;;;;;27.38;46.92;99322.30;1776040;80;20993;-63
2021/06/08 10:41:42;;;;;;;7.92;3.77;;;;;;;27.39;46.82;99317.08;1788773;80;21036;-63
2021/06/08 10:44:21;;;;;;;4.87;3.35;;;;;;;27.43;46.77;99319.52;1789238;80;21059;-64
2021/06/08 10:46:56;;;;;;;3.83;3.52;;;;;;;27.47;46.61;99313.73;1762821;80;21019;-63
2021/06/08 10:49:38;;;;;;;3.83;3.52;;;;;;;27.53;46.41;99314.50;1767461;80;21942;-69
2021/06/08 10:52:13;;;;;;;4.20;3.58;;;;;;;27.59;46.14;99303.22;1778173;80;20997;-67
2021/06/08 10:54:47;;;;;;;4.50;3.40;;;;;;;27.67;45.52;99298.23;1780946;80;21092;-67
2021/06/08 10:57:15;;;;;;;5.97;3.47;;;;;;;27.73;45.02;99301.95;1767313;80;21022;-67
2021/06/08 10:59:47;;;;;;;7.35;6.10;;;;;;;27.78;44.32;99299.72;1752609;80;21089;-68
2021/06/08 11:02:44;;;;;;;31.25;27.93;;;;;;;27.81;44.00;99296.39;1805226;78;21102;-67
2021/06/08 11:05:11;;;;;;;18.45;16.25;;;;;;;27.85;43.21;99302.35;1742663;81;21034;-67
2021/06/08 11:07:51;;;;;;;29.45;24.40;;;;;;;27.88;42.96;99298.78;1768675;79;21093;-63
2021/06/08 11:10:33;;;;;;;14.53;10.95;;;;;;;27.93;43.57;99306.91;1765262;80;20990;-67
2021/06/08 11:13:18;;;;;;;14.35;11.88;;;;;;;27.96;44.00;99309.86;1780318;79;21643;-66
2021/06/08 11:15:48;;;;;;;17.05;13.80;;;;;;;27.97;44.09;99315.59;1752113;79;21113;-69
2021/06/08 11:18:25;;;;;;;21.70;19.45;;;;;;;27.95;44.41;99331.46;1748181;79;21085;-66
2021/06/08 11:21:11;;;;;;;21.77;18.57;;;;;;;27.91;44.70;99325.50;1757320;79;21100;-66
2021/06/08 11:23:42;;;;;;;15.88;13.55;;;;;;;27.85;45.03;99328.81;1763453;79;21089;-66
2021/06/08 11:26:10;;;;;;;15.93;14.18;;;;;;;27.81;45.32;99330.50;1755563;79;21561;-67
2021/06/08 11:28:46;;;;;;;16.15;9.90;;;;;;;27.79;45.65;99328.63;1764891;78;21553;-68
2021/06/08 11:31:14;;;;;;;13.62;11.75;;;;;;;27.81;45.46;99326.41;1778844;80;21083;-65
2021/06/08 11:33:48;;;;;;;15.50;10.95;;;;;;;27.85;45.63;99315.16;1779087;78;21547;-69
2021/06/08 11:36:25;;;;;;;12.98;11.10;;;;;;;27.92;45.85;99312.12;1777622;80;21508;-70
2021/06/08 11:38:55;;;;;;;18.12;15.78;;;;;;;28.01;45.40;99304.34;1756588;79;21497;-65
2021/06/08 11:41:22;;;;;;;19.70;16.17;;;;;;;28.13;45.79;99294.91;1763011;79;21119;-70
2021/06/08 11:43:56;;;;;;;16.27;14.38;;;;;;;28.24;45.59;99298.55;1789078;78;21142;-70
2021/06/08 11:46:29;;;;;;;17.85;15.15;;;;;;;28.35;45.38;99293.73;1761117;80;21067;-62
2021/06/08 11:49:07;;;;;;;15.60;14.00;;;;;;;28.44;45.42;99294.69;1790803;79;21089;-63